createdAt,value
2022-09-07T18:02:57.353Z,29.44
2022-09-07T18:05:28.052Z,28.82
2022-09-07T18:08:00.797Z,28.93
2022-09-07T18:11:45.063Z,27.47
2022-09-07T18:13:33.546Z,26.77
2022-09-07T18:16:13.418Z,26.43
2022-09-07T18:18:43.990Z,26.41
2022-09-07T18:21:20.845Z,26.94
2022-09-07T18:24:06.056Z,27.88
2022-09-07T18:26:41.688Z,28.53
2022-09-07T18:29:26.273Z,28.73
2022-09-07T18:31:58.559Z,29.10
2022-09-07T18:34:29.856Z,30.71
2022-09-07T18:37:00.784Z,30.67
2022-09-07T18:39:30.804Z,31.05
2022-09-07T18:42:01.457Z,30.43
2022-09-07T18:47:27.925Z,29.82
2022-09-07T18:49:59.583Z,27.53
2022-09-07T18:55:20.609Z,26.16
2022-09-07T18:57:50.393Z,25.83
2022-09-07T19:00:20.463Z,25.76
2022-09-07T19:02:53.402Z,25.69
2022-09-07T19:08:14.289Z,29.28
2022-09-07T19:10:44.259Z,26.39
2022-09-07T19:13:14.951Z,25.66
2022-09-07T19:15:45.035Z,25.44
2022-09-07T19:18:14.905Z,25.35
2022-09-07T19:20:44.629Z,25.31
2022-09-07T19:23:15.032Z,25.39
2022-09-07T19:25:44.718Z,25.31
2022-09-07T19:28:15.453Z,25.30
2022-09-07T19:30:45.137Z,25.14
2022-09-07T19:33:14.990Z,25.10
2022-09-07T19:35:45.292Z,25.08
2022-09-07T19:38:15.047Z,25.41
2022-09-07T19:40:44.762Z,25.78
2022-09-07T19:43:14.437Z,25.75
2022-09-07T19:45:44.776Z,25.69
2022-09-07T19:48:14.539Z,25.49
2022-09-07T19:50:47.882Z,25.35
2022-09-07T19:53:19.169Z,25.20
2022-09-07T19:55:49.212Z,25.04
2022-09-07T19:58:18.887Z,24.87
2022-09-07T20:00:49.534Z,24.76
2022-09-07T20:03:19.259Z,24.56
2022-09-07T20:05:48.930Z,24.52
2022-09-07T20:08:18.618Z,24.42
2022-09-07T20:10:48.310Z,24.32
2022-09-07T20:13:18.901Z,24.12
2022-09-07T20:15:48.816Z,23.88
2022-09-07T20:18:18.690Z,23.78
2022-09-07T20:20:48.414Z,23.78
2022-09-07T20:23:18.076Z,23.80
2022-09-07T20:26:01.328Z,23.71
2022-09-07T20:28:31.772Z,23.71
2022-09-07T20:31:04.007Z,23.64
2022-09-07T20:33:37.974Z,23.56
2022-09-07T20:36:17.227Z,23.29
2022-09-07T20:38:50.507Z,23.06
2022-09-07T20:41:32.394Z,22.88
2022-09-07T20:44:04.580Z,23.09
2022-09-07T20:46:35.166Z,23.18
2022-09-07T20:49:06.398Z,23.01
2022-09-07T20:51:36.492Z,22.92
2022-09-07T20:54:06.251Z,22.76
2022-09-07T20:56:36.885Z,22.57
2022-09-07T20:59:07.921Z,22.45
2022-09-07T21:01:39.075Z,22.36
2022-09-07T21:04:09.005Z,22.17
2022-09-07T21:06:38.931Z,22.06
2022-09-07T21:09:08.680Z,22.03
2022-09-07T21:11:38.415Z,21.85
2022-09-07T21:14:12.480Z,21.73
2022-09-07T21:16:43.652Z,21.61
2022-09-07T21:19:14.242Z,21.39
2022-09-07T21:21:44.913Z,21.15
2022-09-07T21:24:23.600Z,20.94
2022-09-07T21:26:53.695Z,20.70
2022-09-07T21:29:26.785Z,20.45
2022-09-07T21:31:56.884Z,20.22
2022-09-07T21:34:27.035Z,20.05
2022-09-07T21:36:56.730Z,19.85
2022-09-07T21:39:26.572Z,19.64
2022-09-07T21:41:56.284Z,19.47
2022-09-07T21:44:26.861Z,19.27
2022-09-07T21:46:56.844Z,19.09
2022-09-07T21:49:26.597Z,18.94
2022-09-07T21:51:56.254Z,18.84
2022-09-07T21:54:25.994Z,18.79
2022-09-07T21:56:55.679Z,18.60
2022-09-07T21:59:25.539Z,18.44
2022-09-07T22:01:55.831Z,18.30
2022-09-07T22:04:26.412Z,18.23
2022-09-07T22:06:56.760Z,18.23
2022-09-07T22:09:26.622Z,18.12
2022-09-07T22:11:56.465Z,18.04
2022-09-07T22:14:26.154Z,18.00
2022-09-07T22:16:55.943Z,17.94
2022-09-07T22:19:25.615Z,17.89
2022-09-07T22:21:55.428Z,17.89
2022-09-07T22:24:25.097Z,17.81
2022-09-07T22:26:54.937Z,17.78
2022-09-07T22:29:24.624Z,17.71
2022-09-07T22:31:54.338Z,17.69
2022-09-07T22:34:24.089Z,17.66
2022-09-07T22:36:54.147Z,17.58
2022-09-07T22:39:23.887Z,17.51
2022-09-07T22:41:54.488Z,17.51
2022-09-07T22:44:26.690Z,17.42
2022-09-07T22:46:56.873Z,17.32
2022-09-07T22:49:26.745Z,17.27
2022-09-07T22:51:56.513Z,17.18
2022-09-07T22:54:26.250Z,17.14
2022-09-07T22:56:56.285Z,17.17
2022-09-07T22:59:25.998Z,17.11
2022-09-07T23:01:55.683Z,17.06
2022-09-07T23:04:29.715Z,16.99
2022-09-07T23:07:02.097Z,16.88
2022-09-07T23:09:32.025Z,16.84
2022-09-07T23:12:01.764Z,16.80
2022-09-07T23:14:32.113Z,16.74
2022-09-07T23:17:01.784Z,16.63
2022-09-07T23:19:31.549Z,16.53
2022-09-07T23:22:01.884Z,16.51
2022-09-07T23:24:32.535Z,16.53
2022-09-07T23:27:02.212Z,16.55
2022-09-07T23:29:31.925Z,16.48
2022-09-07T23:32:01.960Z,16.36
2022-09-07T23:34:31.660Z,16.29
2022-09-07T23:37:00.873Z,16.29
2022-09-07T23:39:30.678Z,16.33
2022-09-07T23:42:00.739Z,16.32
2022-09-07T23:44:30.491Z,16.39
2022-09-07T23:47:00.305Z,16.33
2022-09-07T23:49:30.239Z,16.29
2022-09-07T23:52:01.168Z,16.25
2022-09-07T23:54:32.647Z,16.15
2022-09-07T23:57:02.768Z,16.05
2022-09-07T23:59:35.050Z,16.00
